sensor_id;sensor_type;location;lat;lon;timestamp;pressure;altitude;pressure_sealevel;temperature;humidity
77227;BME280;66234;47.642;19.144;2023-02-20T00:01:51;101023.97;;;4.60;55.09
77227;BME280;66234;47.642;19.144;2023-02-20T00:04:54;101028.31;;;4.61;54.73
77227;BME280;66234;47.642;19.144;2023-02-20T00:07:57;101025.56;;;4.53;55.07
77227;BME280;66234;47.642;19.144;2023-02-20T00:10:59;101031.00;;;4.51;55.58
77227;BME280;66234;47.642;19.144;2023-02-20T00:14:02;101025.28;;;4.56;55.63
77227;BME280;66234;47.642;19.144;2023-02-20T00:17:05;101024.88;;;4.51;55.62
77227;BME280;66234;47.642;19.144;2023-02-20T00:20:07;101025.78;;;4.42;55.56
77227;BME280;66234;47.642;19.144;2023-02-20T00:23:10;101031.66;;;4.36;55.53
77227;BME280;66234;47.642;19.144;2023-02-20T00:26:13;101024.22;;;4.39;55.68
77227;BME280;66234;47.642;19.144;2023-02-20T00:29:20;101037.69;;;4.28;56.12
77227;BME280;66234;47.642;19.144;2023-02-20T00:32:23;101043.81;;;4.29;54.91
77227;BME280;66234;47.642;19.144;2023-02-20T00:35:26;101051.22;;;4.25;55.41
77227;BME280;66234;47.642;19.144;2023-02-20T00:38:28;101042.84;;;4.30;54.35
77227;BME280;66234;47.642;19.144;2023-02-20T00:41:31;101058.19;;;4.26;54.45
77227;BME280;66234;47.642;19.144;2023-02-20T00:44:33;101044.06;;;4.35;53.79
77227;BME280;66234;47.642;19.144;2023-02-20T00:47:36;101037.31;;;4.23;54.40
77227;BME280;66234;47.642;19.144;2023-02-20T00:50:41;101038.00;;;4.25;53.51
77227;BME280;66234;47.642;19.144;2023-02-20T00:53:43;101035.50;;;4.24;54.22
77227;BME280;66234;47.642;19.144;2023-02-20T00:56:46;101029.16;;;4.34;53.73
77227;BME280;66234;47.642;19.144;2023-02-20T00:59:48;101024.22;;;4.22;53.70
77227;BME280;66234;47.642;19.144;2023-02-20T01:02:52;101031.91;;;4.15;54.78
77227;BME280;66234;47.642;19.144;2023-02-20T01:05:57;101039.22;;;4.04;55.28
77227;BME280;66234;47.642;19.144;2023-02-20T01:09:00;101036.47;;;3.96;55.56
77227;BME280;66234;47.642;19.144;2023-02-20T01:12:02;101050.16;;;3.82;55.92
77227;BME280;66234;47.642;19.144;2023-02-20T01:15:06;101057.56;;;3.69;56.54
77227;BME280;66234;47.642;19.144;2023-02-20T01:18:09;101061.78;;;3.62;57.38
77227;BME280;66234;47.642;19.144;2023-02-20T01:21:12;101066.09;;;3.53;57.40
77227;BME280;66234;47.642;19.144;2023-02-20T01:24:15;101069.28;;;3.57;57.31
77227;BME280;66234;47.642;19.144;2023-02-20T01:27:18;101079.59;;;3.60;57.37
77227;BME280;66234;47.642;19.144;2023-02-20T01:30:20;101078.59;;;3.61;57.40
77227;BME280;66234;47.642;19.144;2023-02-20T01:33:23;101083.59;;;3.64;57.66
77227;BME280;66234;47.642;19.144;2023-02-20T01:36:26;101074.00;;;3.63;57.98
77227;BME280;66234;47.642;19.144;2023-02-20T01:39:31;101073.31;;;3.61;58.08
77227;BME280;66234;47.642;19.144;2023-02-20T01:42:34;101070.38;;;3.64;58.50
77227;BME280;66234;47.642;19.144;2023-02-20T01:45:37;101078.31;;;3.64;58.63
77227;BME280;66234;47.642;19.144;2023-02-20T01:48:40;101078.06;;;3.57;58.95
77227;BME280;66234;47.642;19.144;2023-02-20T01:51:47;101082.66;;;3.55;58.63
77227;BME280;66234;47.642;19.144;2023-02-20T01:55:03;101083.59;;;3.64;58.29
77227;BME280;66234;47.642;19.144;2023-02-20T02:01:22;101087.09;;;3.64;58.55
77227;BME280;66234;47.642;19.144;2023-02-20T02:04:24;101081.94;;;3.53;59.22
77227;BME280;66234;47.642;19.144;2023-02-20T02:07:28;101078.50;;;3.53;58.93
77227;BME280;66234;47.642;19.144;2023-02-20T02:10:39;101076.13;;;3.50;58.93
77227;BME280;66234;47.642;19.144;2023-02-20T02:13:44;101080.84;;;3.56;58.90
77227;BME280;66234;47.642;19.144;2023-02-20T02:17:00;101086.00;;;3.57;59.14
77227;BME280;66234;47.642;19.144;2023-02-20T02:23:50;101102.69;;;3.48;59.61
77227;BME280;66234;47.642;19.144;2023-02-20T02:31:02;101106.44;;;3.46;60.15
77227;BME280;66234;47.642;19.144;2023-02-20T02:34:37;101109.66;;;3.39;60.50
77227;BME280;66234;47.642;19.144;2023-02-20T02:37:59;101115.78;;;3.30;60.87
77227;BME280;66234;47.642;19.144;2023-02-20T02:44:38;101135.00;;;3.32;61.01
77227;BME280;66234;47.642;19.144;2023-02-20T02:48:09;101116.75;;;3.29;60.65
77227;BME280;66234;47.642;19.144;2023-02-20T02:51:25;101135.53;;;3.36;60.41
77227;BME280;66234;47.642;19.144;2023-02-20T02:54:29;101139.03;;;3.36;60.41
77227;BME280;66234;47.642;19.144;2023-02-20T02:57:33;101136.38;;;3.36;60.36
77227;BME280;66234;47.642;19.144;2023-02-20T03:00:50;101141.94;;;3.33;60.57
77227;BME280;66234;47.642;19.144;2023-02-20T03:03:55;101139.59;;;3.40;60.41
77227;BME280;66234;47.642;19.144;2023-02-20T03:07:07;101145.00;;;3.38;60.62
77227;BME280;66234;47.642;19.144;2023-02-20T03:10:17;101146.94;;;3.36;60.71
77227;BME280;66234;47.642;19.144;2023-02-20T03:13:24;101146.09;;;3.26;61.23
77227;BME280;66234;47.642;19.144;2023-02-20T03:17:00;101140.28;;;3.23;61.33
77227;BME280;66234;47.642;19.144;2023-02-20T03:20:15;101138.47;;;3.14;62.30
77227;BME280;66234;47.642;19.144;2023-02-20T03:23:32;101140.00;;;3.16;62.22
77227;BME280;66234;47.642;19.144;2023-02-20T03:26:40;101135.25;;;3.01;62.98
77227;BME280;66234;47.642;19.144;2023-02-20T03:29:46;101134.94;;;2.94;63.28
77227;BME280;66234;47.642;19.144;2023-02-20T03:32:54;101134.94;;;2.94;63.75
77227;BME280;66234;47.642;19.144;2023-02-20T03:36:25;101134.38;;;2.91;64.00
77227;BME280;66234;47.642;19.144;2023-02-20T03:39:50;101138.56;;;2.84;64.42
77227;BME280;66234;47.642;19.144;2023-02-20T03:43:18;101144.41;;;2.87;64.55
77227;BME280;66234;47.642;19.144;2023-02-20T03:46:26;101149.69;;;2.87;64.53
77227;BME280;66234;47.642;19.144;2023-02-20T03:49:34;101159.84;;;2.92;65.16
77227;BME280;66234;47.642;19.144;2023-02-20T03:52:39;101156.75;;;2.87;66.16
77227;BME280;66234;47.642;19.144;2023-02-20T03:55:42;101163.28;;;2.73;67.29
77227;BME280;66234;47.642;19.144;2023-02-20T03:58:53;101169.91;;;2.58;68.18
77227;BME280;66234;47.642;19.144;2023-02-20T04:02:00;101170.00;;;2.47;69.08
77227;BME280;66234;47.642;19.144;2023-02-20T04:05:07;101166.91;;;2.42;68.91
77227;BME280;66234;47.642;19.144;2023-02-20T04:14:36;101168.91;;;2.29;71.12
77227;BME280;66234;47.642;19.144;2023-02-20T04:17:51;101166.13;;;2.21;71.92
77227;BME280;66234;47.642;19.144;2023-02-20T04:20:58;101164.13;;;2.14;72.60
77227;BME280;66234;47.642;19.144;2023-02-20T04:24:11;101160.13;;;2.19;73.35
77227;BME280;66234;47.642;19.144;2023-02-20T04:27:15;101155.81;;;2.18;73.41
77227;BME280;66234;47.642;19.144;2023-02-20T04:30:24;101152.41;;;2.27;72.91
77227;BME280;66234;47.642;19.144;2023-02-20T04:33:27;101153.09;;;2.29;72.72
77227;BME280;66234;47.642;19.144;2023-02-20T04:36:35;101153.00;;;2.40;72.10
77227;BME280;66234;47.642;19.144;2023-02-20T04:39:40;101154.97;;;2.48;71.87
77227;BME280;66234;47.642;19.144;2023-02-20T04:42:44;101148.47;;;2.52;71.55
77227;BME280;66234;47.642;19.144;2023-02-20T04:45:47;101142.75;;;2.47;71.69
77227;BME280;66234;47.642;19.144;2023-02-20T04:48:50;101141.63;;;2.49;72.01
77227;BME280;66234;47.642;19.144;2023-02-20T04:51:53;101143.47;;;2.49;71.77
77227;BME280;66234;47.642;19.144;2023-02-20T04:54:56;101148.47;;;2.52;71.58
77227;BME280;66234;47.642;19.144;2023-02-20T04:57:59;101144.84;;;2.53;71.92
77227;BME280;66234;47.642;19.144;2023-02-20T05:01:08;101153.34;;;2.56;71.86
77227;BME280;66234;47.642;19.144;2023-02-20T05:04:11;101151.16;;;2.61;72.06
77227;BME280;66234;47.642;19.144;2023-02-20T05:07:16;101162.69;;;2.70;71.61
77227;BME280;66234;47.642;19.144;2023-02-20T05:10:21;101150.63;;;2.77;70.66
77227;BME280;66234;47.642;19.144;2023-02-20T05:13:24;101143.25;;;2.80;71.33
77227;BME280;66234;47.642;19.144;2023-02-20T05:16:26;101158.16;;;2.91;70.33
77227;BME280;66234;47.642;19.144;2023-02-20T05:19:29;101145.34;;;2.86;70.93
77227;BME280;66234;47.642;19.144;2023-02-20T05:22:32;101145.50;;;2.94;70.07
77227;BME280;66234;47.642;19.144;2023-02-20T05:25:34;101154.16;;;2.96;70.29
77227;BME280;66234;47.642;19.144;2023-02-20T05:28:38;101165.94;;;2.92;70.59
77227;BME280;66234;47.642;19.144;2023-02-20T05:31:41;101171.50;;;2.99;70.07
77227;BME280;66234;47.642;19.144;2023-02-20T05:34:44;101182.66;;;3.02;70.08
77227;BME280;66234;47.642;19.144;2023-02-20T05:37:47;101171.09;;;3.03;69.96
77227;BME280;66234;47.642;19.144;2023-02-20T05:40:49;101180.59;;;3.06;69.82
77227;BME280;66234;47.642;19.144;2023-02-20T05:43:52;101181.25;;;3.08;70.06
77227;BME280;66234;47.642;19.144;2023-02-20T05:46:58;101183.53;;;3.12;69.59
77227;BME280;66234;47.642;19.144;2023-02-20T05:50:01;101179.75;;;3.15;69.55
77227;BME280;66234;47.642;19.144;2023-02-20T05:53:04;101189.63;;;3.22;69.00
77227;BME280;66234;47.642;19.144;2023-02-20T05:56:06;101179.91;;;3.23;68.88
77227;BME280;66234;47.642;19.144;2023-02-20T05:59:09;101192.84;;;3.26;68.60
77227;BME280;66234;47.642;19.144;2023-02-20T06:02:12;101195.06;;;3.30;68.60
77227;BME280;66234;47.642;19.144;2023-02-20T06:05:15;101199.25;;;3.33;68.64
77227;BME280;66234;47.642;19.144;2023-02-20T06:08:18;101205.81;;;3.38;68.42
77227;BME280;66234;47.642;19.144;2023-02-20T06:11:20;101196.75;;;3.41;67.87
77227;BME280;66234;47.642;19.144;2023-02-20T06:14:25;101193.97;;;3.42;68.29
77227;BME280;66234;47.642;19.144;2023-02-20T06:17:28;101195.63;;;3.43;68.04
77227;BME280;66234;47.642;19.144;2023-02-20T06:20:31;101219.84;;;3.49;68.02
77227;BME280;66234;47.642;19.144;2023-02-20T06:23:37;101212.34;;;3.54;67.84
77227;BME280;66234;47.642;19.144;2023-02-20T06:26:41;101213.06;;;3.56;68.00
77227;BME280;66234;47.642;19.144;2023-02-20T06:29:46;101209.00;;;3.61;67.11
77227;BME280;66234;47.642;19.144;2023-02-20T06:32:49;101209.56;;;3.65;67.05
77227;BME280;66234;47.642;19.144;2023-02-20T06:35:51;101207.22;;;3.62;67.16
77227;BME280;66234;47.642;19.144;2023-02-20T06:38:54;101213.31;;;3.72;67.11
77227;BME280;66234;47.642;19.144;2023-02-20T06:41:59;101207.88;;;3.73;66.63
77227;BME280;66234;47.642;19.144;2023-02-20T06:45:02;101209.16;;;3.79;66.23
77227;BME280;66234;47.642;19.144;2023-02-20T06:48:05;101198.28;;;3.82;66.60
77227;BME280;66234;47.642;19.144;2023-02-20T06:51:08;101199.38;;;3.89;66.20
77227;BME280;66234;47.642;19.144;2023-02-20T07:04:27;101213.50;;;4.26;65.94
77227;BME280;66234;47.642;19.144;2023-02-20T07:07:30;101213.38;;;4.27;64.98
77227;BME280;66234;47.642;19.144;2023-02-20T07:10:33;101215.69;;;4.40;65.45
77227;BME280;66234;47.642;19.144;2023-02-20T07:13:36;101211.28;;;4.31;65.05
77227;BME280;66234;47.642;19.144;2023-02-20T07:16:39;101203.16;;;4.42;64.57
77227;BME280;66234;47.642;19.144;2023-02-20T07:19:41;101201.88;;;4.46;64.52
77227;BME280;66234;47.642;19.144;2023-02-20T07:28:53;101223.78;;;4.48;64.06
77227;BME280;66234;47.642;19.144;2023-02-20T07:32:00;101229.19;;;4.56;64.49
77227;BME280;66234;47.642;19.144;2023-02-20T07:35:03;101229.66;;;4.69;64.13
77227;BME280;66234;47.642;19.144;2023-02-20T07:38:11;101238.44;;;4.79;64.52
77227;BME280;66234;47.642;19.144;2023-02-20T07:41:14;101237.59;;;4.78;64.80
77227;BME280;66234;47.642;19.144;2023-02-20T07:44:16;101241.78;;;4.81;65.14
77227;BME280;66234;47.642;19.144;2023-02-20T07:47:19;101219.50;;;5.01;64.76
77227;BME280;66234;47.642;19.144;2023-02-20T07:50:22;101234.19;;;4.86;65.99
77227;BME280;66234;47.642;19.144;2023-02-20T07:53:24;101210.66;;;4.83;66.78
77227;BME280;66234;47.642;19.144;2023-02-20T07:56:27;101207.72;;;4.86;67.15
77227;BME280;66234;47.642;19.144;2023-02-20T07:59:30;101221.25;;;5.10;66.81
77227;BME280;66234;47.642;19.144;2023-02-20T08:02:33;101215.16;;;5.00;66.55
77227;BME280;66234;47.642;19.144;2023-02-20T08:05:35;101233.13;;;4.79;67.82
77227;BME280;66234;47.642;19.144;2023-02-20T08:08:51;101235.97;;;4.68;68.70
77227;BME280;66234;47.642;19.144;2023-02-20T08:11:54;101238.28;;;4.80;68.86
77227;BME280;66234;47.642;19.144;2023-02-20T08:14:57;101225.59;;;4.84;68.49
77227;BME280;66234;47.642;19.144;2023-02-20T08:17:59;101223.66;;;5.03;68.04
77227;BME280;66234;47.642;19.144;2023-02-20T08:21:02;101218.41;;;5.21;67.47
77227;BME280;66234;47.642;19.144;2023-02-20T08:24:05;101227.22;;;5.39;67.57
77227;BME280;66234;47.642;19.144;2023-02-20T08:27:08;101219.19;;;5.49;67.36
77227;BME280;66234;47.642;19.144;2023-02-20T08:30:21;101206.16;;;5.38;66.78
77227;BME280;66234;47.642;19.144;2023-02-20T08:33:25;101207.03;;;5.46;66.65
77227;BME280;66234;47.642;19.144;2023-02-20T08:36:29;101195.16;;;5.50;66.73
77227;BME280;66234;47.642;19.144;2023-02-20T08:39:37;101195.59;;;5.63;66.76
77227;BME280;66234;47.642;19.144;2023-02-20T08:42:42;101197.28;;;5.64;66.84
77227;BME280;66234;47.642;19.144;2023-02-20T08:45:46;101190.28;;;5.81;67.00
77227;BME280;66234;47.642;19.144;2023-02-20T08:48:51;101185.84;;;5.64;67.39
77227;BME280;66234;47.642;19.144;2023-02-20T08:51:58;101193.72;;;5.73;67.21
77227;BME280;66234;47.642;19.144;2023-02-20T08:55:02;101193.88;;;5.72;67.00
77227;BME280;66234;47.642;19.144;2023-02-20T08:58:05;101183.84;;;6.01;67.33
77227;BME280;66234;47.642;19.144;2023-02-20T09:01:07;101193.63;;;6.00;67.32
77227;BME280;66234;47.642;19.144;2023-02-20T09:04:10;101179.31;;;5.93;67.06
77227;BME280;66234;47.642;19.144;2023-02-20T09:07:13;101185.56;;;6.10;67.49
77227;BME280;66234;47.642;19.144;2023-02-20T09:10:19;101186.97;;;6.22;67.13
77227;BME280;66234;47.642;19.144;2023-02-20T09:13:22;101178.94;;;6.39;66.72
77227;BME280;66234;47.642;19.144;2023-02-20T09:16:25;101172.50;;;6.16;66.56
77227;BME280;66234;47.642;19.144;2023-02-20T09:19:29;101166.88;;;6.19;66.59
77227;BME280;66234;47.642;19.144;2023-02-20T09:22:32;101174.81;;;6.37;66.43
77227;BME280;66234;47.642;19.144;2023-02-20T09:25:35;101168.47;;;6.38;67.00
77227;BME280;66234;47.642;19.144;2023-02-20T09:28:39;101163.84;;;6.40;66.60
77227;BME280;66234;47.642;19.144;2023-02-20T09:31:41;101159.03;;;6.35;67.31
77227;BME280;66234;47.642;19.144;2023-02-20T09:34:44;101152.53;;;6.63;66.87
77227;BME280;66234;47.642;19.144;2023-02-20T09:37:47;101153.91;;;6.76;66.27
77227;BME280;66234;47.642;19.144;2023-02-20T09:40:53;101144.03;;;6.60;67.31
77227;BME280;66234;47.642;19.144;2023-02-20T09:47:26;101144.63;;;6.88;67.23
77227;BME280;66234;47.642;19.144;2023-02-20T09:50:36;101138.06;;;7.16;67.22
77227;BME280;66234;47.642;19.144;2023-02-20T09:54:09;101139.69;;;7.01;67.20
77227;BME280;66234;47.642;19.144;2023-02-20T09:57:21;101143.69;;;7.13;66.54
77227;BME280;66234;47.642;19.144;2023-02-20T10:00:32;101144.06;;;7.34;67.18
77227;BME280;66234;47.642;19.144;2023-02-20T10:04:05;101134.59;;;7.39;67.02
77227;BME280;66234;47.642;19.144;2023-02-20T10:10:20;101119.47;;;7.56;66.69
77227;BME280;66234;47.642;19.144;2023-02-20T10:16:47;101121.63;;;7.68;67.17
77227;BME280;66234;47.642;19.144;2023-02-20T10:23:46;101111.78;;;7.69;69.50
77227;BME280;66234;47.642;19.144;2023-02-20T10:27:29;101108.16;;;7.54;70.14
77227;BME280;66234;47.642;19.144;2023-02-20T10:30:49;101103.50;;;7.24;70.44
77227;BME280;66234;47.642;19.144;2023-02-20T10:34:07;101084.88;;;7.56;68.96
77227;BME280;66234;47.642;19.144;2023-02-20T10:37:34;101088.34;;;7.64;68.15
77227;BME280;66234;47.642;19.144;2023-02-20T10:41:06;101077.53;;;7.74;68.43
77227;BME280;66234;47.642;19.144;2023-02-20T10:44:20;101068.00;;;7.87;67.35
77227;BME280;66234;47.642;19.144;2023-02-20T10:47:35;101063.69;;;7.78;68.25
77227;BME280;66234;47.642;19.144;2023-02-20T10:50:49;101064.56;;;7.63;68.77
77227;BME280;66234;47.642;19.144;2023-02-20T10:54:30;101061.34;;;7.99;67.40
77227;BME280;66234;47.642;19.144;2023-02-20T10:57:47;101054.75;;;7.79;68.54
77227;BME280;66234;47.642;19.144;2023-02-20T11:00:58;101033.88;;;7.99;69.05
77227;BME280;66234;47.642;19.144;2023-02-20T11:04:10;101025.25;;;8.35;68.15
77227;BME280;66234;47.642;19.144;2023-02-20T11:07:15;101015.59;;;8.43;67.68
77227;BME280;66234;47.642;19.144;2023-02-20T11:10:20;101008.72;;;8.48;67.16
77227;BME280;66234;47.642;19.144;2023-02-20T11:13:24;100989.00;;;8.57;66.70
77227;BME280;66234;47.642;19.144;2023-02-20T11:16:31;100978.78;;;8.69;66.66
77227;BME280;66234;47.642;19.144;2023-02-20T11:19:48;100973.03;;;8.80;66.07
77227;BME280;66234;47.642;19.144;2023-02-20T11:22:51;100971.41;;;8.93;65.76
77227;BME280;66234;47.642;19.144;2023-02-20T11:25:56;100964.69;;;8.97;65.58
77227;BME280;66234;47.642;19.144;2023-02-20T11:29:15;100977.59;;;9.45;64.85
77227;BME280;66234;47.642;19.144;2023-02-20T11:32:38;100968.16;;;9.57;64.20
77227;BME280;66234;47.642;19.144;2023-02-20T11:35:42;100964.13;;;9.76;63.68
77227;BME280;66234;47.642;19.144;2023-02-20T11:38:46;100949.38;;;9.80;63.00
77227;BME280;66234;47.642;19.144;2023-02-20T11:42:14;100950.00;;;10.11;62.62
77227;BME280;66234;47.642;19.144;2023-02-20T11:45:28;100938.13;;;10.14;61.88
77227;BME280;66234;47.642;19.144;2023-02-20T11:48:30;100927.53;;;10.41;61.42
77227;BME280;66234;47.642;19.144;2023-02-20T11:51:39;100922.31;;;10.75;60.69
77227;BME280;66234;47.642;19.144;2023-02-20T11:54:42;100926.72;;;10.62;60.51
77227;BME280;66234;47.642;19.144;2023-02-20T11:57:47;100905.72;;;10.59;60.87
77227;BME280;66234;47.642;19.144;2023-02-20T12:00:53;100901.00;;;10.61;60.81
77227;BME280;66234;47.642;19.144;2023-02-20T12:03:57;100891.41;;;10.45;60.65
77227;BME280;66234;47.642;19.144;2023-02-20T12:07:16;100887.75;;;10.74;59.71
77227;BME280;66234;47.642;19.144;2023-02-20T12:13:38;100862.41;;;11.25;57.91
77227;BME280;66234;47.642;19.144;2023-02-20T12:26:21;100828.75;;;11.84;54.24
77227;BME280;66234;47.642;19.144;2023-02-20T12:39:52;100813.78;;;12.22;53.87
77227;BME280;66234;47.642;19.144;2023-02-20T12:46:22;100811.34;;;13.05;50.83
77227;BME280;66234;47.642;19.144;2023-02-20T12:53:16;100838.63;;;13.02;50.10
77227;BME280;66234;47.642;19.144;2023-02-20T13:03:56;100795.63;;;12.76;51.91
77227;BME280;66234;47.642;19.144;2023-02-20T13:07:17;100825.38;;;12.36;52.84
77227;BME280;66234;47.642;19.144;2023-02-20T13:13:42;100819.16;;;12.29;53.60
77227;BME280;66234;47.642;19.144;2023-02-20T13:19:59;100796.06;;;12.21;53.73
77227;BME280;66234;47.642;19.144;2023-02-20T13:29:29;100816.50;;;12.35;53.89
77227;BME280;66234;47.642;19.144;2023-02-20T13:32:33;100777.06;;;12.42;53.89
77227;BME280;66234;47.642;19.144;2023-02-20T13:35:52;100771.72;;;12.68;53.45
77227;BME280;66234;47.642;19.144;2023-02-20T13:42:32;100778.75;;;12.50;53.82
77227;BME280;66234;47.642;19.144;2023-02-20T13:45:39;100761.00;;;12.49;54.01
77227;BME280;66234;47.642;19.144;2023-02-20T13:48:45;100759.97;;;12.50;53.80
77227;BME280;66234;47.642;19.144;2023-02-20T13:51:50;100748.84;;;12.46;54.33
77227;BME280;66234;47.642;19.144;2023-02-20T13:54:53;100752.94;;;12.42;54.68
77227;BME280;66234;47.642;19.144;2023-02-20T13:58:09;100738.72;;;12.22;54.38
77227;BME280;66234;47.642;19.144;2023-02-20T14:01:12;100749.63;;;12.21;53.73
77227;BME280;66234;47.642;19.144;2023-02-20T14:04:19;100744.09;;;12.09;54.49
77227;BME280;66234;47.642;19.144;2023-02-20T14:07:37;100730.88;;;12.08;54.67
77227;BME280;66234;47.642;19.144;2023-02-20T14:10:40;100727.38;;;12.14;54.45
77227;BME280;66234;47.642;19.144;2023-02-20T14:13:49;100743.03;;;11.97;54.01
77227;BME280;66234;47.642;19.144;2023-02-20T14:17:02;100744.88;;;11.97;53.87
77227;BME280;66234;47.642;19.144;2023-02-20T14:20:17;100729.63;;;11.97;54.00
77227;BME280;66234;47.642;19.144;2023-02-20T14:23:25;100733.13;;;12.04;53.65
77227;BME280;66234;47.642;19.144;2023-02-20T14:26:30;100739.72;;;12.08;53.81
77227;BME280;66234;47.642;19.144;2023-02-20T14:29:33;100728.41;;;12.06;53.92
77227;BME280;66234;47.642;19.144;2023-02-20T14:32:42;100718.91;;;12.10;54.00
77227;BME280;66234;47.642;19.144;2023-02-20T14:43:18;100704.69;;;12.03;53.53
77227;BME280;66234;47.642;19.144;2023-02-20T14:46:24;100715.59;;;12.08;53.62
77227;BME280;66234;47.642;19.144;2023-02-20T14:49:30;100713.78;;;12.22;52.86
77227;BME280;66234;47.642;19.144;2023-02-20T14:52:33;100705.09;;;12.13;52.80
77227;BME280;66234;47.642;19.144;2023-02-20T14:55:35;100701.16;;;11.96;53.45
77227;BME280;66234;47.642;19.144;2023-02-20T14:58:38;100704.06;;;11.95;53.54
77227;BME280;66234;47.642;19.144;2023-02-20T15:01:40;100695.00;;;11.89;53.71
77227;BME280;66234;47.642;19.144;2023-02-20T15:05:04;100703.03;;;11.83;54.08
77227;BME280;66234;47.642;19.144;2023-02-20T15:08:30;100697.63;;;11.76;53.76
77227;BME280;66234;47.642;19.144;2023-02-20T15:11:36;100700.09;;;11.71;54.00
77227;BME280;66234;47.642;19.144;2023-02-20T15:14:57;100684.63;;;11.67;54.12
77227;BME280;66234;47.642;19.144;2023-02-20T15:18:31;100690.84;;;11.67;54.18
77227;BME280;66234;47.642;19.144;2023-02-20T15:21:37;100684.03;;;11.65;54.54
77227;BME280;66234;47.642;19.144;2023-02-20T15:24:40;100678.47;;;11.66;54.44
77227;BME280;66234;47.642;19.144;2023-02-20T15:28:04;100671.66;;;11.70;54.66
77227;BME280;66234;47.642;19.144;2023-02-20T15:34:30;100658.22;;;11.44;55.11
77227;BME280;66234;47.642;19.144;2023-02-20T15:37:35;100655.88;;;11.28;56.26
77227;BME280;66234;47.642;19.144;2023-02-20T15:40:48;100648.84;;;11.14;56.32
77227;BME280;66234;47.642;19.144;2023-02-20T15:43:51;100633.19;;;11.04;56.35
77227;BME280;66234;47.642;19.144;2023-02-20T15:46:53;100636.44;;;11.00;56.65
77227;BME280;66234;47.642;19.144;2023-02-20T15:49:56;100629.25;;;11.00;56.47
77227;BME280;66234;47.642;19.144;2023-02-20T15:53:00;100624.06;;;10.92;56.93
77227;BME280;66234;47.642;19.144;2023-02-20T15:56:03;100626.94;;;10.84;57.11
77227;BME280;66234;47.642;19.144;2023-02-20T15:59:08;100617.22;;;10.77;57.39
77227;BME280;66234;47.642;19.144;2023-02-20T16:02:19;100617.41;;;10.75;56.98
77227;BME280;66234;47.642;19.144;2023-02-20T16:05:22;100609.38;;;10.75;57.35
77227;BME280;66234;47.642;19.144;2023-02-20T16:08:26;100617.56;;;10.61;57.69
77227;BME280;66234;47.642;19.144;2023-02-20T16:11:40;100611.31;;;10.47;58.22
77227;BME280;66234;47.642;19.144;2023-02-20T16:14:45;100606.53;;;10.36;58.34
77227;BME280;66234;47.642;19.144;2023-02-20T16:17:49;100603.81;;;10.30;58.84
77227;BME280;66234;47.642;19.144;2023-02-20T16:20:54;100597.78;;;10.21;59.08
77227;BME280;66234;47.642;19.144;2023-02-20T16:23:58;100586.50;;;10.19;59.00
77227;BME280;66234;47.642;19.144;2023-02-20T16:27:01;100585.59;;;10.12;59.13
77227;BME280;66234;47.642;19.144;2023-02-20T16:30:15;100583.44;;;10.01;59.59
77227;BME280;66234;47.642;19.144;2023-02-20T16:33:34;100582.47;;;9.81;60.00
77227;BME280;66234;47.642;19.144;2023-02-20T16:36:37;100583.00;;;9.70;60.80
77227;BME280;66234;47.642;19.144;2023-02-20T16:39:42;100579.47;;;9.63;60.71
77227;BME280;66234;47.642;19.144;2023-02-20T16:42:45;100572.03;;;9.58;60.82
77227;BME280;66234;47.642;19.144;2023-02-20T16:45:49;100571.97;;;9.52;61.34
77227;BME280;66234;47.642;19.144;2023-02-20T16:48:51;100586.22;;;9.59;60.59
77227;BME280;66234;47.642;19.144;2023-02-20T16:51:54;100573.47;;;9.61;60.37
77227;BME280;66234;47.642;19.144;2023-02-20T16:58:27;100576.84;;;9.48;60.54
77227;BME280;66234;47.642;19.144;2023-02-20T17:01:30;100569.31;;;9.31;61.59
77227;BME280;66234;47.642;19.144;2023-02-20T17:04:32;100574.03;;;9.08;62.43
77227;BME280;66234;47.642;19.144;2023-02-20T17:07:35;100572.59;;;8.91;63.02
77227;BME280;66234;47.642;19.144;2023-02-20T17:10:39;100566.50;;;8.61;64.21
77227;BME280;66234;47.642;19.144;2023-02-20T17:13:42;100555.19;;;8.74;63.48
77227;BME280;66234;47.642;19.144;2023-02-20T17:16:48;100547.38;;;8.93;62.99
77227;BME280;66234;47.642;19.144;2023-02-20T17:19:51;100539.91;;;9.03;62.44
77227;BME280;66234;47.642;19.144;2023-02-20T17:22:55;100540.34;;;9.07;62.23
77227;BME280;66234;47.642;19.144;2023-02-20T17:26:07;100554.25;;;9.02;63.01
77227;BME280;66234;47.642;19.144;2023-02-20T17:29:11;100551.19;;;9.05;62.49
77227;BME280;66234;47.642;19.144;2023-02-20T17:32:15;100551.50;;;8.96;62.68
77227;BME280;66234;47.642;19.144;2023-02-20T17:35:18;100551.03;;;8.71;64.09
77227;BME280;66234;47.642;19.144;2023-02-20T17:38:20;100548.25;;;8.44;64.75
77227;BME280;66234;47.642;19.144;2023-02-20T17:41:23;100551.75;;;8.15;67.04
77227;BME280;66234;47.642;19.144;2023-02-20T17:44:28;100550.03;;;8.72;63.45
77227;BME280;66234;47.642;19.144;2023-02-20T17:47:32;100549.53;;;8.33;65.83
77227;BME280;66234;47.642;19.144;2023-02-20T17:50:35;100548.13;;;8.66;63.71
77227;BME280;66234;47.642;19.144;2023-02-20T17:53:38;100553.50;;;8.73;63.79
77227;BME280;66234;47.642;19.144;2023-02-20T17:56:42;100547.09;;;8.67;63.87
77227;BME280;66234;47.642;19.144;2023-02-20T17:59:46;100551.88;;;8.57;64.71
77227;BME280;66234;47.642;19.144;2023-02-20T18:02:50;100543.56;;;8.31;65.90
77227;BME280;66234;47.642;19.144;2023-02-20T18:05:53;100537.63;;;8.29;66.47
77227;BME280;66234;47.642;19.144;2023-02-20T18:08:57;100537.13;;;8.11;67.28
77227;BME280;66234;47.642;19.144;2023-02-20T18:12:01;100526.19;;;7.91;68.65
77227;BME280;66234;47.642;19.144;2023-02-20T18:15:05;100524.09;;;7.87;68.72